sensor_id;sensor_type;location;lat;lon;timestamp;pressure;altitude;pressure_sealevel;temperature
67966;BMP280;54749;47.850;9.002;2022-08-25T00:01:29;96055.47;;;17.97
67966;BMP280;54749;47.850;9.002;2022-08-25T00:03:58;96048.59;;;17.97
67966;BMP280;54749;47.850;9.002;2022-08-25T00:06:27;96045.44;;;18.03
67966;BMP280;54749;47.850;9.002;2022-08-25T00:08:54;96045.91;;;18.06
67966;BMP280;54749;47.850;9.002;2022-08-25T00:11:28;96046.69;;;17.99
67966;BMP280;54749;47.850;9.002;2022-08-25T00:13:58;96040.44;;;17.94
67966;BMP280;54749;47.850;9.002;2022-08-25T00:16:27;96050.06;;;18.00
67966;BMP280;54749;47.850;9.002;2022-08-25T00:18:57;96048.94;;;17.94
67966;BMP280;54749;47.850;9.002;2022-08-25T00:21:25;96045.31;;;17.80
67966;BMP280;54749;47.850;9.002;2022-08-25T00:23:52;96052.97;;;17.64
67966;BMP280;54749;47.850;9.002;2022-08-25T00:26:20;96055.63;;;17.55
67966;BMP280;54749;47.850;9.002;2022-08-25T00:28:47;96056.91;;;17.51
67966;BMP280;54749;47.850;9.002;2022-08-25T00:31:17;96049.03;;;17.45
67966;BMP280;54749;47.850;9.002;2022-08-25T00:33:46;96049.69;;;17.47
67966;BMP280;54749;47.850;9.002;2022-08-25T00:36:14;96047.59;;;17.42
67966;BMP280;54749;47.850;9.002;2022-08-25T00:38:43;96039.59;;;17.37
67966;BMP280;54749;47.850;9.002;2022-08-25T00:41:14;96039.41;;;17.31
67966;BMP280;54749;47.850;9.002;2022-08-25T00:43:49;96036.19;;;17.29
67966;BMP280;54749;47.850;9.002;2022-08-25T00:46:24;96033.78;;;17.28
67966;BMP280;54749;47.850;9.002;2022-08-25T00:48:59;96037.81;;;17.30
67966;BMP280;54749;47.850;9.002;2022-08-25T00:51:41;96032.50;;;17.24
67966;BMP280;54749;47.850;9.002;2022-08-25T00:54:16;96039.50;;;17.14
67966;BMP280;54749;47.850;9.002;2022-08-25T00:56:45;96041.59;;;17.18
67966;BMP280;54749;47.850;9.002;2022-08-25T00:59:13;96043.38;;;17.26
67966;BMP280;54749;47.850;9.002;2022-08-25T01:01:41;96036.19;;;17.29
67966;BMP280;54749;47.850;9.002;2022-08-25T01:04:08;96034.94;;;17.33
67966;BMP280;54749;47.850;9.002;2022-08-25T01:06:38;96039.28;;;17.40
67966;BMP280;54749;47.850;9.002;2022-08-25T01:09:06;96048.09;;;17.46
67966;BMP280;54749;47.850;9.002;2022-08-25T01:11:34;96046.19;;;17.48
67966;BMP280;54749;47.850;9.002;2022-08-25T01:14:02;96048.06;;;17.38
67966;BMP280;54749;47.850;9.002;2022-08-25T01:16:33;96057.13;;;17.33
67966;BMP280;54749;47.850;9.002;2022-08-25T01:19:00;96051.06;;;17.34
67966;BMP280;54749;47.850;9.002;2022-08-25T01:21:29;96049.22;;;17.43
67966;BMP280;54749;47.850;9.002;2022-08-25T01:23:57;96055.53;;;17.32
67966;BMP280;54749;47.850;9.002;2022-08-25T01:26:28;96055.00;;;17.20
67966;BMP280;54749;47.850;9.002;2022-08-25T01:28:58;96058.28;;;17.05
67966;BMP280;54749;47.850;9.002;2022-08-25T01:31:44;96052.66;;;17.02
67966;BMP280;54749;47.850;9.002;2022-08-25T01:34:12;96052.97;;;16.99
67966;BMP280;54749;47.850;9.002;2022-08-25T01:36:41;96050.56;;;16.98
67966;BMP280;54749;47.850;9.002;2022-08-25T01:39:09;96059.47;;;16.94
67966;BMP280;54749;47.850;9.002;2022-08-25T01:44:32;96064.56;;;16.94
67966;BMP280;54749;47.850;9.002;2022-08-25T01:47:02;96065.31;;;16.86
67966;BMP280;54749;47.850;9.002;2022-08-25T01:49:29;96060.97;;;16.79
67966;BMP280;54749;47.850;9.002;2022-08-25T01:52:01;96055.50;;;16.74
67966;BMP280;54749;47.850;9.002;2022-08-25T01:54:31;96059.56;;;16.67
67966;BMP280;54749;47.850;9.002;2022-08-25T01:56:58;96062.75;;;16.62
67966;BMP280;54749;47.850;9.002;2022-08-25T01:59:25;96052.44;;;16.71
67966;BMP280;54749;47.850;9.002;2022-08-25T02:01:53;96047.03;;;16.74
67966;BMP280;54749;47.850;9.002;2022-08-25T02:04:27;96047.97;;;16.73
67966;BMP280;54749;47.850;9.002;2022-08-25T02:06:59;96054.63;;;16.66
67966;BMP280;54749;47.850;9.002;2022-08-25T02:09:26;96052.22;;;16.65
67966;BMP280;54749;47.850;9.002;2022-08-25T02:11:53;96041.53;;;16.61
67966;BMP280;54749;47.850;9.002;2022-08-25T02:14:20;96041.78;;;16.58
67966;BMP280;54749;47.850;9.002;2022-08-25T02:16:49;96044.72;;;16.63
67966;BMP280;54749;47.850;9.002;2022-08-25T02:19:17;96048.81;;;16.56
67966;BMP280;54749;47.850;9.002;2022-08-25T02:21:44;96041.38;;;16.46
67966;BMP280;54749;47.850;9.002;2022-08-25T02:24:12;96052.38;;;16.46
67966;BMP280;54749;47.850;9.002;2022-08-25T02:26:39;96047.78;;;16.49
67966;BMP280;54749;47.850;9.002;2022-08-25T02:29:07;96051.59;;;16.46
67966;BMP280;54749;47.850;9.002;2022-08-25T02:31:35;96045.03;;;16.43
67966;BMP280;54749;47.850;9.002;2022-08-25T02:34:04;96046.47;;;16.46
67966;BMP280;54749;47.850;9.002;2022-08-25T02:36:31;96037.59;;;16.49
67966;BMP280;54749;47.850;9.002;2022-08-25T02:38:59;96039.81;;;16.45
67966;BMP280;54749;47.850;9.002;2022-08-25T02:41:27;96047.09;;;16.40
67966;BMP280;54749;47.850;9.002;2022-08-25T02:43:57;96043.38;;;16.34
67966;BMP280;54749;47.850;9.002;2022-08-25T02:46:24;96041.47;;;16.36
67966;BMP280;54749;47.850;9.002;2022-08-25T02:48:51;96040.69;;;16.36
67966;BMP280;54749;47.850;9.002;2022-08-25T02:51:21;96039.34;;;16.32
67966;BMP280;54749;47.850;9.002;2022-08-25T02:53:48;96034.25;;;16.32
67966;BMP280;54749;47.850;9.002;2022-08-25T02:56:17;96037.09;;;16.29
67966;BMP280;54749;47.850;9.002;2022-08-25T02:58:45;96029.16;;;16.32
67966;BMP280;54749;47.850;9.002;2022-08-25T03:01:13;96022.16;;;16.34
67966;BMP280;54749;47.850;9.002;2022-08-25T03:03:41;96036.88;;;16.40
67966;BMP280;54749;47.850;9.002;2022-08-25T03:06:15;96026.38;;;16.43
67966;BMP280;54749;47.850;9.002;2022-08-25T03:08:43;96026.69;;;16.40
67966;BMP280;54749;47.850;9.002;2022-08-25T03:11:10;96025.88;;;16.39
67966;BMP280;54749;47.850;9.002;2022-08-25T03:13:37;96026.69;;;16.40
67966;BMP280;54749;47.850;9.002;2022-08-25T03:16:06;96027.75;;;16.37
67966;BMP280;54749;47.850;9.002;2022-08-25T03:18:39;96016.41;;;16.32
67966;BMP280;54749;47.850;9.002;2022-08-25T03:21:09;96023.72;;;16.27
67966;BMP280;54749;47.850;9.002;2022-08-25T03:23:37;96017.66;;;16.28
67966;BMP280;54749;47.850;9.002;2022-08-25T03:26:04;96019.25;;;16.29
67966;BMP280;54749;47.850;9.002;2022-08-25T03:28:50;96025.81;;;16.31
67966;BMP280;54749;47.850;9.002;2022-08-25T03:31:17;96016.69;;;16.29
67966;BMP280;54749;47.850;9.002;2022-08-25T03:33:44;96015.44;;;16.33
67966;BMP280;54749;47.850;9.002;2022-08-25T03:36:12;96015.75;;;16.30
67966;BMP280;54749;47.850;9.002;2022-08-25T03:38:39;96013.56;;;16.35
67966;BMP280;54749;47.850;9.002;2022-08-25T03:41:14;96017.06;;;16.34
67966;BMP280;54749;47.850;9.002;2022-08-25T03:43:42;96018.88;;;16.41
67966;BMP280;54749;47.850;9.002;2022-08-25T03:46:24;96022.66;;;16.37
67966;BMP280;54749;47.850;9.002;2022-08-25T03:48:52;96024.56;;;16.35
67966;BMP280;54749;47.850;9.002;2022-08-25T03:51:29;96027.72;;;16.30
67966;BMP280;54749;47.850;9.002;2022-08-25T03:53:57;96036.75;;;16.24
67966;BMP280;54749;47.850;9.002;2022-08-25T03:56:24;96028.47;;;16.22
67966;BMP280;54749;47.850;9.002;2022-08-25T03:58:53;96038.16;;;16.19
67966;BMP280;54749;47.850;9.002;2022-08-25T04:01:21;96036.81;;;16.15
67966;BMP280;54749;47.850;9.002;2022-08-25T04:03:48;96040.78;;;16.10
67966;BMP280;54749;47.850;9.002;2022-08-25T04:06:17;96039.97;;;16.09
67966;BMP280;54749;47.850;9.002;2022-08-25T04:08:44;96042.34;;;16.11
67966;BMP280;54749;47.850;9.002;2022-08-25T04:11:17;96037.13;;;16.12
67966;BMP280;54749;47.850;9.002;2022-08-25T04:13:45;96039.81;;;16.11
67966;BMP280;54749;47.850;9.002;2022-08-25T04:16:18;96035.31;;;16.05
67966;BMP280;54749;47.850;9.002;2022-08-25T04:18:46;96046.22;;;15.97
67966;BMP280;54749;47.850;9.002;2022-08-25T04:21:15;96047.59;;;15.92
67966;BMP280;54749;47.850;9.002;2022-08-25T04:23:44;96043.19;;;15.85
67966;BMP280;54749;47.850;9.002;2022-08-25T04:26:14;96051.56;;;15.77
67966;BMP280;54749;47.850;9.002;2022-08-25T04:28:41;96054.03;;;15.70
67966;BMP280;54749;47.850;9.002;2022-08-25T04:31:09;96055.25;;;15.66
67966;BMP280;54749;47.850;9.002;2022-08-25T04:33:37;96053.28;;;15.60
67966;BMP280;54749;47.850;9.002;2022-08-25T04:36:05;96053.41;;;15.59
67966;BMP280;54749;47.850;9.002;2022-08-25T04:38:39;96046.31;;;15.62
67966;BMP280;54749;47.850;9.002;2022-08-25T04:41:07;96049.22;;;15.67
67966;BMP280;54749;47.850;9.002;2022-08-25T04:43:36;96046.50;;;15.68
67966;BMP280;54749;47.850;9.002;2022-08-25T04:46:12;96051.56;;;15.77
67966;BMP280;54749;47.850;9.002;2022-08-25T04:48:49;96056.22;;;15.82
67966;BMP280;54749;47.850;9.002;2022-08-25T04:51:20;96047.03;;;15.89
67966;BMP280;54749;47.850;9.002;2022-08-25T04:53:49;96041.66;;;16.01
67966;BMP280;54749;47.850;9.002;2022-08-25T04:56:17;96033.13;;;16.10
67966;BMP280;54749;47.850;9.002;2022-08-25T04:58:45;96040.16;;;16.15
67966;BMP280;54749;47.850;9.002;2022-08-25T05:01:17;96038.94;;;16.19
67966;BMP280;54749;47.850;9.002;2022-08-25T05:03:46;96040.59;;;16.28
67966;BMP280;54749;47.850;9.002;2022-08-25T05:06:13;96038.78;;;16.38
67966;BMP280;54749;47.850;9.002;2022-08-25T05:08:42;96025.13;;;16.47
67966;BMP280;54749;47.850;9.002;2022-08-25T05:11:13;96022.34;;;16.57
67966;BMP280;54749;47.850;9.002;2022-08-25T05:13:42;96022.59;;;16.71
67966;BMP280;54749;47.850;9.002;2022-08-25T05:16:16;96020.78;;;16.89
67966;BMP280;54749;47.850;9.002;2022-08-25T05:18:43;96023.50;;;17.12
67966;BMP280;54749;47.850;9.002;2022-08-25T05:21:16;96015.81;;;17.45
67966;BMP280;54749;47.850;9.002;2022-08-25T05:23:44;96017.16;;;17.56
67966;BMP280;54749;47.850;9.002;2022-08-25T05:26:18;96015.75;;;17.70
67966;BMP280;54749;47.850;9.002;2022-08-25T05:28:48;96025.84;;;17.79
67966;BMP280;54749;47.850;9.002;2022-08-25T05:31:16;96015.50;;;17.88
67966;BMP280;54749;47.850;9.002;2022-08-25T05:33:43;96016.34;;;18.04
67966;BMP280;54749;47.850;9.002;2022-08-25T05:36:12;96019.53;;;18.14
67966;BMP280;54749;47.850;9.002;2022-08-25T05:38:39;96015.09;;;18.39
67966;BMP280;54749;47.850;9.002;2022-08-25T05:41:10;96003.09;;;18.40
67966;BMP280;54749;47.850;9.002;2022-08-25T05:43:38;96006.75;;;18.60
67966;BMP280;54749;47.850;9.002;2022-08-25T05:46:06;96002.25;;;18.70
67966;BMP280;54749;47.850;9.002;2022-08-25T05:48:34;96006.56;;;18.93
67966;BMP280;54749;47.850;9.002;2022-08-25T05:51:03;96003.50;;;19.43
67966;BMP280;54749;47.850;9.002;2022-08-25T05:53:30;95999.19;;;19.81
67966;BMP280;54749;47.850;9.002;2022-08-25T05:56:00;96003.38;;;20.03
67966;BMP280;54749;47.850;9.002;2022-08-25T05:58:28;96009.06;;;20.57
67966;BMP280;54749;47.850;9.002;2022-08-25T06:00:56;95999.97;;;21.19
67966;BMP280;54749;47.850;9.002;2022-08-25T06:03:23;95991.94;;;21.70
67966;BMP280;54749;47.850;9.002;2022-08-25T06:05:50;95990.22;;;21.91
67966;BMP280;54749;47.850;9.002;2022-08-25T06:08:17;95981.56;;;23.07
67966;BMP280;54749;47.850;9.002;2022-08-25T06:10:50;95977.13;;;24.25
67966;BMP280;54749;47.850;9.002;2022-08-25T06:13:17;95974.38;;;25.09
67966;BMP280;54749;47.850;9.002;2022-08-25T06:15:57;95986.78;;;26.12
67966;BMP280;54749;47.850;9.002;2022-08-25T06:18:25;95981.41;;;26.97
67966;BMP280;54749;47.850;9.002;2022-08-25T06:20:52;95984.22;;;27.78
67966;BMP280;54749;47.850;9.002;2022-08-25T06:23:19;95978.44;;;28.63
67966;BMP280;54749;47.850;9.002;2022-08-25T06:25:50;95982.69;;;28.97
67966;BMP280;54749;47.850;9.002;2022-08-25T06:28:18;95976.91;;;29.62
67966;BMP280;54749;47.850;9.002;2022-08-25T06:30:45;95977.84;;;29.56
67966;BMP280;54749;47.850;9.002;2022-08-25T06:33:13;95962.06;;;29.85
67966;BMP280;54749;47.850;9.002;2022-08-25T06:35:42;95972.53;;;29.52
67966;BMP280;54749;47.850;9.002;2022-08-25T06:38:10;95973.94;;;30.20
67966;BMP280;54749;47.850;9.002;2022-08-25T06:40:37;95968.38;;;30.71
67966;BMP280;54749;47.850;9.002;2022-08-25T06:43:04;95962.16;;;31.04
67966;BMP280;54749;47.850;9.002;2022-08-25T06:45:34;95959.44;;;31.15
67966;BMP280;54749;47.850;9.002;2022-08-25T06:48:01;95965.25;;;31.54
67966;BMP280;54749;47.850;9.002;2022-08-25T06:50:28;95961.84;;;31.74
67966;BMP280;54749;47.850;9.002;2022-08-25T06:52:55;95966.53;;;30.71
67966;BMP280;54749;47.850;9.002;2022-08-25T06:55:27;95968.56;;;30.96
67966;BMP280;54749;47.850;9.002;2022-08-25T06:57:53;95964.63;;;30.83
67966;BMP280;54749;47.850;9.002;2022-08-25T07:00:20;95957.75;;;31.41
67966;BMP280;54749;47.850;9.002;2022-08-25T07:02:57;95947.38;;;32.35
67966;BMP280;54749;47.850;9.002;2022-08-25T07:05:24;95954.06;;;31.79
67966;BMP280;54749;47.850;9.002;2022-08-25T07:07:59;95956.56;;;31.69
67966;BMP280;54749;47.850;9.002;2022-08-25T07:10:26;95956.16;;;32.19
67966;BMP280;54749;47.850;9.002;2022-08-25T07:12:57;95956.34;;;31.92
67966;BMP280;54749;47.850;9.002;2022-08-25T07:15:24;95946.38;;;32.36
67966;BMP280;54749;47.850;9.002;2022-08-25T07:17:51;95937.88;;;33.06
67966;BMP280;54749;47.850;9.002;2022-08-25T07:20:17;95940.03;;;33.54
67966;BMP280;54749;47.850;9.002;2022-08-25T07:22:46;95943.00;;;33.77
67966;BMP280;54749;47.850;9.002;2022-08-25T07:25:13;95951.84;;;33.21
67966;BMP280;54749;47.850;9.002;2022-08-25T07:27:43;95946.53;;;33.07
67966;BMP280;54749;47.850;9.002;2022-08-25T07:30:10;95947.00;;;33.04
67966;BMP280;54749;47.850;9.002;2022-08-25T07:32:37;95952.03;;;33.45
67966;BMP280;54749;47.850;9.002;2022-08-25T07:35:09;95939.13;;;34.73
67966;BMP280;54749;47.850;9.002;2022-08-25T07:37:51;95932.81;;;35.28
67966;BMP280;54749;47.850;9.002;2022-08-25T07:40:22;95925.97;;;36.03
67966;BMP280;54749;47.850;9.002;2022-08-25T07:42:52;95939.38;;;36.59
67966;BMP280;54749;47.850;9.002;2022-08-25T07:45:20;95932.81;;;37.21
67966;BMP280;54749;47.850;9.002;2022-08-25T07:47:51;95924.13;;;37.21
67966;BMP280;54749;47.850;9.002;2022-08-25T07:50:19;95929.56;;;38.03
67966;BMP280;54749;47.850;9.002;2022-08-25T07:52:46;95930.41;;;38.21
67966;BMP280;54749;47.850;9.002;2022-08-25T07:55:21;95924.50;;;38.65
67966;BMP280;54749;47.850;9.002;2022-08-25T07:57:48;95928.78;;;38.61
67966;BMP280;54749;47.850;9.002;2022-08-25T08:00:21;95925.72;;;39.34
67966;BMP280;54749;47.850;9.002;2022-08-25T08:02:50;95927.16;;;39.71
67966;BMP280;54749;47.850;9.002;2022-08-25T08:05:17;95926.75;;;39.78
67966;BMP280;54749;47.850;9.002;2022-08-25T08:07:44;95936.47;;;40.21
67966;BMP280;54749;47.850;9.002;2022-08-25T08:10:13;95933.69;;;40.39
67966;BMP280;54749;47.850;9.002;2022-08-25T08:13:01;95937.97;;;40.83
67966;BMP280;54749;47.850;9.002;2022-08-25T08:15:28;95930.53;;;41.07
67966;BMP280;54749;47.850;9.002;2022-08-25T08:17:57;95935.25;;;41.39
67966;BMP280;54749;47.850;9.002;2022-08-25T08:20:25;95944.28;;;41.60
67966;BMP280;54749;47.850;9.002;2022-08-25T08:22:53;95936.00;;;41.31
67966;BMP280;54749;47.850;9.002;2022-08-25T08:25:20;95944.91;;;41.65
67966;BMP280;54749;47.850;9.002;2022-08-25T08:27:54;95934.78;;;41.37
67966;BMP280;54749;47.850;9.002;2022-08-25T08:30:22;95940.97;;;41.03
67966;BMP280;54749;47.850;9.002;2022-08-25T08:32:53;95940.28;;;41.41
67966;BMP280;54749;47.850;9.002;2022-08-25T08:35:39;95941.16;;;41.58
67966;BMP280;54749;47.850;9.002;2022-08-25T08:38:07;95935.19;;;42.36
67966;BMP280;54749;47.850;9.002;2022-08-25T08:40:47;95928.94;;;42.32
67966;BMP280;54749;47.850;9.002;2022-08-25T08:43:40;95930.06;;;42.65
67966;BMP280;54749;47.850;9.002;2022-08-25T08:46:08;95929.47;;;42.13
67966;BMP280;54749;47.850;9.002;2022-08-25T08:48:46;95932.81;;;42.27
67966;BMP280;54749;47.850;9.002;2022-08-25T08:51:30;95926.16;;;43.20
67966;BMP280;54749;47.850;9.002;2022-08-25T08:54:14;95928.38;;;43.02
67966;BMP280;54749;47.850;9.002;2022-08-25T08:56:47;95924.88;;;43.42
67966;BMP280;54749;47.850;9.002;2022-08-25T08:59:19;95920.88;;;43.56
67966;BMP280;54749;47.850;9.002;2022-08-25T09:01:59;95922.53;;;43.33
67966;BMP280;54749;47.850;9.002;2022-08-25T09:04:33;95935.34;;;41.47
67966;BMP280;54749;47.850;9.002;2022-08-25T09:07:03;95928.13;;;41.48
67966;BMP280;54749;47.850;9.002;2022-08-25T09:09:36;95930.84;;;41.56
67966;BMP280;54749;47.850;9.002;2022-08-25T09:12:35;95928.41;;;40.95
67966;BMP280;54749;47.850;9.002;2022-08-25T09:18:05;95931.84;;;40.27
67966;BMP280;54749;47.850;9.002;2022-08-25T09:23:40;95914.31;;;41.38
67966;BMP280;54749;47.850;9.002;2022-08-25T09:29:23;95916.59;;;42.36
67966;BMP280;54749;47.850;9.002;2022-08-25T09:32:04;95920.31;;;42.27
67966;BMP280;54749;47.850;9.002;2022-08-25T09:34:33;95918.66;;;42.97
67966;BMP280;54749;47.850;9.002;2022-08-25T09:37:00;95907.84;;;43.02
67966;BMP280;54749;47.850;9.002;2022-08-25T09:39:28;95909.16;;;43.49
67966;BMP280;54749;47.850;9.002;2022-08-25T09:41:57;95902.91;;;43.90
67966;BMP280;54749;47.850;9.002;2022-08-25T09:44:29;95924.00;;;44.51
67966;BMP280;54749;47.850;9.002;2022-08-25T09:47:06;95905.81;;;44.25
67966;BMP280;54749;47.850;9.002;2022-08-25T09:49:42;95907.53;;;42.46
67966;BMP280;54749;47.850;9.002;2022-08-25T09:54:53;95903.25;;;44.57
67966;BMP280;54749;47.850;9.002;2022-08-25T09:57:27;95902.16;;;44.38
67966;BMP280;54749;47.850;9.002;2022-08-25T09:59:55;95894.59;;;43.83
67966;BMP280;54749;47.850;9.002;2022-08-25T10:02:28;95901.50;;;43.84
67966;BMP280;54749;47.850;9.002;2022-08-25T10:04:55;95894.09;;;43.53
67966;BMP280;54749;47.850;9.002;2022-08-25T10:07:36;95894.00;;;44.34
67966;BMP280;54749;47.850;9.002;2022-08-25T10:10:51;95882.84;;;43.84
67966;BMP280;54749;47.850;9.002;2022-08-25T10:13:16;95882.94;;;43.06
67966;BMP280;54749;47.850;9.002;2022-08-25T10:16:03;95884.97;;;43.71
67966;BMP280;54749;47.850;9.002;2022-08-25T10:19:03;95886.78;;;44.15
67966;BMP280;54749;47.850;9.002;2022-08-25T10:21:32;95871.94;;;43.33
67966;BMP280;54749;47.850;9.002;2022-08-25T10:23:59;95871.06;;;42.30
67966;BMP280;54749;47.850;9.002;2022-08-25T10:33:19;95866.63;;;39.39
67966;BMP280;54749;47.850;9.002;2022-08-25T10:35:29;95865.44;;;40.88
67966;BMP280;54749;47.850;9.002;2022-08-25T10:38:10;95854.03;;;41.68
67966;BMP280;54749;47.850;9.002;2022-08-25T10:41:10;95846.97;;;42.34
67966;BMP280;54749;47.850;9.002;2022-08-25T10:43:43;95842.78;;;42.33
67966;BMP280;54749;47.850;9.002;2022-08-25T10:46:36;95839.34;;;43.36
67966;BMP280;54749;47.850;9.002;2022-08-25T10:49:17;95843.28;;;44.43
67966;BMP280;54749;47.850;9.002;2022-08-25T10:52:14;95843.13;;;43.91
67966;BMP280;54749;47.850;9.002;2022-08-25T10:59:54;95837.16;;;43.21
67966;BMP280;54749;47.850;9.002;2022-08-25T11:02:43;95829.38;;;43.16
67966;BMP280;54749;47.850;9.002;2022-08-25T11:05:27;95824.78;;;42.64
67966;BMP280;54749;47.850;9.002;2022-08-25T11:08:07;95834.16;;;41.27
67966;BMP280;54749;47.850;9.002;2022-08-25T11:13:15;95834.84;;;38.50
67966;BMP280;54749;47.850;9.002;2022-08-25T11:15:53;95838.38;;;37.00
67966;BMP280;54749;47.850;9.002;2022-08-25T11:19:14;95835.28;;;35.05
67966;BMP280;54749;47.850;9.002;2022-08-25T11:21:48;95847.91;;;34.15
67966;BMP280;54749;47.850;9.002;2022-08-25T11:24:36;95839.47;;;33.94
67966;BMP280;54749;47.850;9.002;2022-08-25T11:27:12;95833.84;;;33.61
67966;BMP280;54749;47.850;9.002;2022-08-25T11:29:53;95837.88;;;33.24
67966;BMP280;54749;47.850;9.002;2022-08-25T11:32:21;95831.41;;;32.55
67966;BMP280;54749;47.850;9.002;2022-08-25T11:34:51;95830.03;;;32.22
67966;BMP280;54749;47.850;9.002;2022-08-25T11:37:22;95845.06;;;32.05
67966;BMP280;54749;47.850;9.002;2022-08-25T11:42:58;95842.75;;;31.62
67966;BMP280;54749;47.850;9.002;2022-08-25T11:48:27;95847.50;;;30.86
67966;BMP280;54749;47.850;9.002;2022-08-25T11:51:29;95848.38;;;30.60
67966;BMP280;54749;47.850;9.002;2022-08-25T11:54:22;95842.81;;;30.24
67966;BMP280;54749;47.850;9.002;2022-08-25T12:02:38;95833.22;;;29.81
67966;BMP280;54749;47.850;9.002;2022-08-25T12:05:48;95835.03;;;29.81
67966;BMP280;54749;47.850;9.002;2022-08-25T12:08:04;95833.22;;;29.70
67966;BMP280;54749;47.850;9.002;2022-08-25T12:11:03;95828.66;;;29.50
67966;BMP280;54749;47.850;9.002;2022-08-25T12:13:49;95824.09;;;29.29
67966;BMP280;54749;47.850;9.002;2022-08-25T12:19:22;95833.47;;;29.41
67966;BMP280;54749;47.850;9.002;2022-08-25T12:21:50;95830.78;;;29.53
67966;BMP280;54749;47.850;9.002;2022-08-25T12:27:37;95821.00;;;28.83
67966;BMP280;54749;47.850;9.002;2022-08-25T12:30:21;95825.50;;;28.98
67966;BMP280;54749;47.850;9.002;2022-08-25T12:33:00;95809.69;;;29.27
67966;BMP280;54749;47.850;9.002;2022-08-25T12:35:54;95821.59;;;29.34
67966;BMP280;54749;47.850;9.002;2022-08-25T12:43:43;95820.56;;;29.24
67966;BMP280;54749;47.850;9.002;2022-08-25T12:54:20;95813.97;;;28.94
67966;BMP280;54749;47.850;9.002;2022-08-25T12:56:52;95804.41;;;29.11
67966;BMP280;54749;47.850;9.002;2022-08-25T12:59:23;95802.28;;;28.97
67966;BMP280;54749;47.850;9.002;2022-08-25T13:02:35;95814.97;;;28.93
67966;BMP280;54749;47.850;9.002;2022-08-25T13:10:57;95798.81;;;28.91
67966;BMP280;54749;47.850;9.002;2022-08-25T13:16:20;95801.53;;;28.85
67966;BMP280;54749;47.850;9.002;2022-08-25T13:18:55;95804.72;;;28.76
67966;BMP280;54749;47.850;9.002;2022-08-25T13:21:37;95797.44;;;28.66
67966;BMP280;54749;47.850;9.002;2022-08-25T13:24:08;95802.66;;;28.55
67966;BMP280;54749;47.850;9.002;2022-08-25T13:26:40;95798.25;;;28.56
67966;BMP280;54749;47.850;9.002;2022-08-25T13:29:26;95789.44;;;28.57
67966;BMP280;54749;47.850;9.002;2022-08-25T13:32:02;95788.88;;;28.55
67966;BMP280;54749;47.850;9.002;2022-08-25T13:34:38;95792.38;;;28.49
67966;BMP280;54749;47.850;9.002;2022-08-25T13:37:22;95796.44;;;28.45
67966;BMP280;54749;47.850;9.002;2022-08-25T13:40:24;95786.97;;;28.39
67966;BMP280;54749;47.850;9.002;2022-08-25T13:42:57;95784.00;;;28.36
67966;BMP280;54749;47.850;9.002;2022-08-25T13:45:30;95781.63;;;28.46
67966;BMP280;54749;47.850;9.002;2022-08-25T13:48:11;95790.25;;;28.35
67966;BMP280;54749;47.850;9.002;2022-08-25T13:50:49;95783.69;;;28.44
67966;BMP280;54749;47.850;9.002;2022-08-25T13:53:23;95784.81;;;28.25
67966;BMP280;54749;47.850;9.002;2022-08-25T13:55:53;95780.22;;;28.10
67966;BMP280;54749;47.850;9.002;2022-08-25T13:58:34;95772.41;;;27.98
67966;BMP280;54749;47.850;9.002;2022-08-25T14:04:31;95768.50;;;28.18
67966;BMP280;54749;47.850;9.002;2022-08-25T14:10:06;95761.06;;;28.33
67966;BMP280;54749;47.850;9.002;2022-08-25T14:12:46;95765.34;;;28.28
67966;BMP280;54749;47.850;9.002;2022-08-25T14:18:02;95758.53;;;28.15
67966;BMP280;54749;47.850;9.002;2022-08-25T14:20:31;95765.50;;;27.81
67966;BMP280;54749;47.850;9.002;2022-08-25T14:23:05;95755.00;;;27.77
67966;BMP280;54749;47.850;9.002;2022-08-25T14:25:36;95760.31;;;27.93
67966;BMP280;54749;47.850;9.002;2022-08-25T14:28:13;95757.03;;;27.97
67966;BMP280;54749;47.850;9.002;2022-08-25T14:30:49;95758.72;;;27.80
67966;BMP280;54749;47.850;9.002;2022-08-25T14:33:20;95758.38;;;27.77
67966;BMP280;54749;47.850;9.002;2022-08-25T14:35:51;95746.66;;;27.86
67966;BMP280;54749;47.850;9.002;2022-08-25T14:38:20;95746.44;;;27.98
67966;BMP280;54749;47.850;9.002;2022-08-25T14:40:47;95744.75;;;28.04
67966;BMP280;54749;47.850;9.002;2022-08-25T14:43:17;95747.47;;;28.09
67966;BMP280;54749;47.850;9.002;2022-08-25T14:45:50;95735.81;;;28.11
67966;BMP280;54749;47.850;9.002;2022-08-25T14:48:32;95741.97;;;28.16
67966;BMP280;54749;47.850;9.002;2022-08-25T14:51:02;95742.50;;;28.18
67966;BMP280;54749;47.850;9.002;2022-08-25T14:53:30;95733.28;;;28.22
67966;BMP280;54749;47.850;9.002;2022-08-25T14:55:57;95734.81;;;28.23
67966;BMP280;54749;47.850;9.002;2022-08-25T14:58:25;95729.75;;;28.17
67966;BMP280;54749;47.850;9.002;2022-08-25T15:01:00;95729.50;;;28.07
67966;BMP280;54749;47.850;9.002;2022-08-25T15:03:31;95733.66;;;27.97
67966;BMP280;54749;47.850;9.002;2022-08-25T15:06:00;95734.31;;;27.93
67966;BMP280;54749;47.850;9.002;2022-08-25T15:08:30;95732.97;;;27.90
67966;BMP280;54749;47.850;9.002;2022-08-25T15:11:15;95734.44;;;27.97
67966;BMP280;54749;47.850;9.002;2022-08-25T15:13:42;95729.38;;;28.02
67966;BMP280;54749;47.850;9.002;2022-08-25T15:16:28;95728.22;;;28.10
67966;BMP280;54749;47.850;9.002;2022-08-25T15:19:03;95727.81;;;28.12
67966;BMP280;54749;47.850;9.002;2022-08-25T15:21:33;95726.91;;;28.18
67966;BMP280;54749;47.850;9.002;2022-08-25T15:24:03;95723.88;;;28.21
67966;BMP280;54749;47.850;9.002;2022-08-25T15:26:33;95718.34;;;28.18
67966;BMP280;54749;47.850;9.002;2022-08-25T15:29:04;95725.34;;;28.17
67966;BMP280;54749;47.850;9.002;2022-08-25T15:31:31;95725.34;;;28.17
67966;BMP280;54749;47.850;9.002;2022-08-25T15:33:58;95726.91;;;28.18
67966;BMP280;54749;47.850;9.002;2022-08-25T15:36:25;95723.97;;;28.04
67966;BMP280;54749;47.850;9.002;2022-08-25T15:38:52;95724.97;;;28.03
67966;BMP280;54749;47.850;9.002;2022-08-25T15:41:19;95724.50;;;28.06
67966;BMP280;54749;47.850;9.002;2022-08-25T15:43:53;95717.84;;;27.98
67966;BMP280;54749;47.850;9.002;2022-08-25T15:46:24;95725.78;;;27.92
67966;BMP280;54749;47.850;9.002;2022-08-25T15:48:51;95719.78;;;27.92
67966;BMP280;54749;47.850;9.002;2022-08-25T15:51:18;95718.53;;;27.94
67966;BMP280;54749;47.850;9.002;2022-08-25T15:53:45;95718.41;;;27.89
67966;BMP280;54749;47.850;9.002;2022-08-25T15:56:12;95713.44;;;27.88